Thornwood, New York
Current Conditions -  °F | °C
As of 7:56 PM on Tuesday 21 Oct 2014 (Local Time) from KHPN Reporting Station
Broken Clouds Broken Clouds  
Wind Chill: 58°   Ceiling: 2800
Heat Index: 58°   Visibility: 10mi
Dew Point: 52°   Wind: 5mph
Humidity: 81%   Direction: 20°NNE
Pressure: 29.88"   Gusts: NA
Location:  41.12°N, 73.77°W
Report Text: KHPN 212356Z 02004KT 10SM SCT024 BKN028 14/11 A2988 RMK AO2 SLP117 60000 T01440111 10172 20139 51013
Loading
Personal Weather Stations






























Interactive Weather Map
Tropical Storm Tracking
New forecast layout! Learn more

10-Day Weather Forecast

Advertisements
Track Severe Weather on mobile